sensor_id;sensor_type;location;lat;lon;timestamp;temperature;humidity
22161;DHT22;49035;48.812;11.762;2022-07-22T00:09:02;15.50;99.90
22161;DHT22;49035;48.812;11.762;2022-07-22T00:11:55;15.70;99.90
22161;DHT22;49035;48.812;11.762;2022-07-22T00:15:35;15.70;99.90
22161;DHT22;49035;48.812;11.762;2022-07-22T00:18:11;15.80;99.90
22161;DHT22;49035;48.812;11.762;2022-07-22T00:21:25;15.80;99.90
22161;DHT22;49035;48.812;11.762;2022-07-22T00:24:43;15.80;99.90
22161;DHT22;49035;48.812;11.762;2022-07-22T00:27:14;15.70;99.90
22161;DHT22;49035;48.812;11.762;2022-07-22T00:29:39;15.60;99.90
22161;DHT22;49035;48.812;11.762;2022-07-22T00:32:05;15.60;99.90
22161;DHT22;49035;48.812;11.762;2022-07-22T00:34:31;15.50;99.90
22161;DHT22;49035;48.812;11.762;2022-07-22T00:36:56;15.40;99.90
22161;DHT22;49035;48.812;11.762;2022-07-22T00:39:22;15.40;99.90
22161;DHT22;49035;48.812;11.762;2022-07-22T00:41:48;15.40;99.90
22161;DHT22;49035;48.812;11.762;2022-07-22T00:44:14;15.40;99.90
22161;DHT22;49035;48.812;11.762;2022-07-22T00:46:39;15.40;99.90
22161;DHT22;49035;48.812;11.762;2022-07-22T00:49:07;15.40;99.90
22161;DHT22;49035;48.812;11.762;2022-07-22T00:51:32;15.30;99.90
22161;DHT22;49035;48.812;11.762;2022-07-22T00:54:00;15.20;99.90
22161;DHT22;49035;48.812;11.762;2022-07-22T00:56:27;15.10;99.90
22161;DHT22;49035;48.812;11.762;2022-07-22T00:58:55;15.10;99.90
22161;DHT22;49035;48.812;11.762;2022-07-22T01:01:21;15.10;99.90
22161;DHT22;49035;48.812;11.762;2022-07-22T01:03:47;15.10;99.90
22161;DHT22;49035;48.812;11.762;2022-07-22T01:06:13;15.10;99.90
22161;DHT22;49035;48.812;11.762;2022-07-22T01:08:39;15.10;99.90
22161;DHT22;49035;48.812;11.762;2022-07-22T01:11:10;15.20;99.90
22161;DHT22;49035;48.812;11.762;2022-07-22T01:13:36;15.30;99.90
22161;DHT22;49035;48.812;11.762;2022-07-22T01:16:04;15.30;99.90
22161;DHT22;49035;48.812;11.762;2022-07-22T01:18:29;15.30;99.90
22161;DHT22;49035;48.812;11.762;2022-07-22T01:20:55;15.40;99.90
22161;DHT22;49035;48.812;11.762;2022-07-22T01:23:21;15.30;99.90
22161;DHT22;49035;48.812;11.762;2022-07-22T01:25:47;15.30;99.90
22161;DHT22;49035;48.812;11.762;2022-07-22T01:28:12;15.30;99.90
22161;DHT22;49035;48.812;11.762;2022-07-22T01:30:38;15.30;99.90
22161;DHT22;49035;48.812;11.762;2022-07-22T01:33:04;15.20;99.90
22161;DHT22;49035;48.812;11.762;2022-07-22T01:35:29;15.20;99.90
22161;DHT22;49035;48.812;11.762;2022-07-22T01:37:55;15.20;99.90
22161;DHT22;49035;48.812;11.762;2022-07-22T01:40:20;15.20;99.90
22161;DHT22;49035;48.812;11.762;2022-07-22T01:42:46;15.30;99.90
22161;DHT22;49035;48.812;11.762;2022-07-22T01:45:11;15.30;99.90
22161;DHT22;49035;48.812;11.762;2022-07-22T01:47:40;15.30;99.90
22161;DHT22;49035;48.812;11.762;2022-07-22T01:50:08;15.20;99.90
22161;DHT22;49035;48.812;11.762;2022-07-22T01:52:35;15.20;99.90
22161;DHT22;49035;48.812;11.762;2022-07-22T01:55:00;15.20;99.90
22161;DHT22;49035;48.812;11.762;2022-07-22T01:57:27;15.10;99.90
22161;DHT22;49035;48.812;11.762;2022-07-22T01:59:52;15.00;99.90
22161;DHT22;49035;48.812;11.762;2022-07-22T02:02:18;15.00;99.90
22161;DHT22;49035;48.812;11.762;2022-07-22T02:04:43;14.90;99.90
22161;DHT22;49035;48.812;11.762;2022-07-22T02:07:09;14.80;99.90
22161;DHT22;49035;48.812;11.762;2022-07-22T02:09:35;14.70;99.90
22161;DHT22;49035;48.812;11.762;2022-07-22T02:12:00;14.70;99.90
22161;DHT22;49035;48.812;11.762;2022-07-22T02:14:26;14.70;99.90
22161;DHT22;49035;48.812;11.762;2022-07-22T02:16:51;14.60;99.90
22161;DHT22;49035;48.812;11.762;2022-07-22T02:19:17;14.60;99.90
22161;DHT22;49035;48.812;11.762;2022-07-22T02:21:42;14.50;99.90
22161;DHT22;49035;48.812;11.762;2022-07-22T02:24:08;14.50;99.90
22161;DHT22;49035;48.812;11.762;2022-07-22T02:26:34;14.40;99.90
22161;DHT22;49035;48.812;11.762;2022-07-22T02:29:00;14.40;99.90
22161;DHT22;49035;48.812;11.762;2022-07-22T02:31:25;14.40;99.90
22161;DHT22;49035;48.812;11.762;2022-07-22T02:33:51;14.40;99.90
22161;DHT22;49035;48.812;11.762;2022-07-22T02:36:17;14.40;99.90
22161;DHT22;49035;48.812;11.762;2022-07-22T02:38:42;14.40;99.90
22161;DHT22;49035;48.812;11.762;2022-07-22T02:41:08;14.40;99.90
22161;DHT22;49035;48.812;11.762;2022-07-22T02:43:33;14.30;99.90
22161;DHT22;49035;48.812;11.762;2022-07-22T02:45:59;14.30;99.90
22161;DHT22;49035;48.812;11.762;2022-07-22T02:48:25;14.40;99.90
22161;DHT22;49035;48.812;11.762;2022-07-22T02:50:50;14.50;99.90
22161;DHT22;49035;48.812;11.762;2022-07-22T02:53:16;14.30;99.90
22161;DHT22;49035;48.812;11.762;2022-07-22T02:55:41;14.20;99.90
22161;DHT22;49035;48.812;11.762;2022-07-22T02:58:08;14.20;99.90
22161;DHT22;49035;48.812;11.762;2022-07-22T03:00:35;14.20;99.90
22161;DHT22;49035;48.812;11.762;2022-07-22T03:03:03;14.20;99.90
22161;DHT22;49035;48.812;11.762;2022-07-22T03:05:29;14.40;99.90
22161;DHT22;49035;48.812;11.762;2022-07-22T03:07:54;14.20;99.90
22161;DHT22;49035;48.812;11.762;2022-07-22T03:10:20;14.20;99.90
22161;DHT22;49035;48.812;11.762;2022-07-22T03:12:46;14.70;99.90
22161;DHT22;49035;48.812;11.762;2022-07-22T03:15:11;14.70;99.90
22161;DHT22;49035;48.812;11.762;2022-07-22T03:17:37;14.60;99.90
22161;DHT22;49035;48.812;11.762;2022-07-22T03:20:08;14.50;99.90
22161;DHT22;49035;48.812;11.762;2022-07-22T03:22:34;14.40;99.90
22161;DHT22;49035;48.812;11.762;2022-07-22T03:25:00;14.30;99.90
22161;DHT22;49035;48.812;11.762;2022-07-22T03:27:26;14.10;99.90
22161;DHT22;49035;48.812;11.762;2022-07-22T03:29:52;14.30;99.90
22161;DHT22;49035;48.812;11.762;2022-07-22T03:32:17;14.30;99.90
22161;DHT22;49035;48.812;11.762;2022-07-22T03:34:44;14.20;99.90
22161;DHT22;49035;48.812;11.762;2022-07-22T03:37:09;14.10;99.90
22161;DHT22;49035;48.812;11.762;2022-07-22T03:39:35;14.00;99.90
22161;DHT22;49035;48.812;11.762;2022-07-22T03:42:00;13.90;99.90
22161;DHT22;49035;48.812;11.762;2022-07-22T03:44:26;13.90;99.90
22161;DHT22;49035;48.812;11.762;2022-07-22T03:46:52;13.90;99.90
22161;DHT22;49035;48.812;11.762;2022-07-22T03:49:17;14.00;99.90
22161;DHT22;49035;48.812;11.762;2022-07-22T03:51:43;14.00;99.90
22161;DHT22;49035;48.812;11.762;2022-07-22T03:54:08;14.10;99.90
22161;DHT22;49035;48.812;11.762;2022-07-22T03:56:34;14.10;99.90
22161;DHT22;49035;48.812;11.762;2022-07-22T03:59:00;14.10;99.90
22161;DHT22;49035;48.812;11.762;2022-07-22T04:01:26;14.10;99.90
22161;DHT22;49035;48.812;11.762;2022-07-22T04:03:52;14.20;99.90
22161;DHT22;49035;48.812;11.762;2022-07-22T04:06:17;14.30;99.90
22161;DHT22;49035;48.812;11.762;2022-07-22T04:08:43;14.30;99.90
22161;DHT22;49035;48.812;11.762;2022-07-22T04:11:09;14.20;99.90
22161;DHT22;49035;48.812;11.762;2022-07-22T04:13:34;14.30;99.90
22161;DHT22;49035;48.812;11.762;2022-07-22T04:16:00;14.30;99.90
22161;DHT22;49035;48.812;11.762;2022-07-22T04:18:25;14.30;99.90
22161;DHT22;49035;48.812;11.762;2022-07-22T04:20:51;14.40;99.90
22161;DHT22;49035;48.812;11.762;2022-07-22T04:23:17;14.50;99.90
22161;DHT22;49035;48.812;11.762;2022-07-22T04:25:42;14.50;99.90
22161;DHT22;49035;48.812;11.762;2022-07-22T04:28:08;14.80;99.90
22161;DHT22;49035;48.812;11.762;2022-07-22T04:30:33;15.30;99.90
22161;DHT22;49035;48.812;11.762;2022-07-22T04:32:59;15.90;99.90
22161;DHT22;49035;48.812;11.762;2022-07-22T04:35:25;16.40;99.90
22161;DHT22;49035;48.812;11.762;2022-07-22T04:37:51;16.70;99.90
22161;DHT22;49035;48.812;11.762;2022-07-22T04:40:16;17.00;99.90
22161;DHT22;49035;48.812;11.762;2022-07-22T04:42:42;17.20;99.90
22161;DHT22;49035;48.812;11.762;2022-07-22T04:45:08;17.40;99.90
22161;DHT22;49035;48.812;11.762;2022-07-22T04:47:34;17.80;99.90
22161;DHT22;49035;48.812;11.762;2022-07-22T04:50:00;18.10;99.90
22161;DHT22;49035;48.812;11.762;2022-07-22T04:52:26;18.50;99.90
22161;DHT22;49035;48.812;11.762;2022-07-22T04:54:51;18.70;99.90
22161;DHT22;49035;48.812;11.762;2022-07-22T04:57:17;18.70;99.90
22161;DHT22;49035;48.812;11.762;2022-07-22T04:59:42;19.00;99.90
22161;DHT22;49035;48.812;11.762;2022-07-22T05:02:08;19.30;99.90
22161;DHT22;49035;48.812;11.762;2022-07-22T05:04:34;20.20;99.90
22161;DHT22;49035;48.812;11.762;2022-07-22T05:06:59;20.20;99.90
22161;DHT22;49035;48.812;11.762;2022-07-22T05:09:25;20.30;99.90
22161;DHT22;49035;48.812;11.762;2022-07-22T05:11:51;20.10;99.90
22161;DHT22;49035;48.812;11.762;2022-07-22T05:14:16;20.40;99.90
22161;DHT22;49035;48.812;11.762;2022-07-22T05:16:42;21.00;99.90
22161;DHT22;49035;48.812;11.762;2022-07-22T05:19:08;21.60;99.90
22161;DHT22;49035;48.812;11.762;2022-07-22T05:21:33;21.90;99.90
22161;DHT22;49035;48.812;11.762;2022-07-22T05:23:59;22.10;99.90
22161;DHT22;49035;48.812;11.762;2022-07-22T05:26:25;22.10;99.90
22161;DHT22;49035;48.812;11.762;2022-07-22T05:28:53;22.50;99.90
22161;DHT22;49035;48.812;11.762;2022-07-22T05:31:19;23.30;99.90
22161;DHT22;49035;48.812;11.762;2022-07-22T05:33:44;23.70;99.90
22161;DHT22;49035;48.812;11.762;2022-07-22T05:36:10;23.80;99.90
22161;DHT22;49035;48.812;11.762;2022-07-22T05:38:36;24.00;99.90
22161;DHT22;49035;48.812;11.762;2022-07-22T05:41:01;24.10;99.90
22161;DHT22;49035;48.812;11.762;2022-07-22T05:43:27;24.50;99.90
22161;DHT22;49035;48.812;11.762;2022-07-22T05:45:53;25.00;99.90
22161;DHT22;49035;48.812;11.762;2022-07-22T05:48:19;24.70;99.90
22161;DHT22;49035;48.812;11.762;2022-07-22T05:50:44;24.70;99.90
22161;DHT22;49035;48.812;11.762;2022-07-22T05:53:10;24.90;99.90
22161;DHT22;49035;48.812;11.762;2022-07-22T05:55:36;24.80;99.90
22161;DHT22;49035;48.812;11.762;2022-07-22T05:58:01;25.40;99.90
22161;DHT22;49035;48.812;11.762;2022-07-22T06:00:27;26.20;99.90
22161;DHT22;49035;48.812;11.762;2022-07-22T06:02:53;26.80;99.90
22161;DHT22;49035;48.812;11.762;2022-07-22T06:05:19;27.20;98.20
22161;DHT22;49035;48.812;11.762;2022-07-22T06:07:44;27.40;96.00
22161;DHT22;49035;48.812;11.762;2022-07-22T06:10:10;27.90;93.50
22161;DHT22;49035;48.812;11.762;2022-07-22T06:12:36;28.50;91.50
22161;DHT22;49035;48.812;11.762;2022-07-22T06:15:02;28.20;92.00
22161;DHT22;49035;48.812;11.762;2022-07-22T06:17:28;28.60;89.60
22161;DHT22;49035;48.812;11.762;2022-07-22T06:19:53;28.50;89.90
22161;DHT22;49035;48.812;11.762;2022-07-22T06:22:19;28.70;87.60
22161;DHT22;49035;48.812;11.762;2022-07-22T06:24:45;28.90;86.30
22161;DHT22;49035;48.812;11.762;2022-07-22T06:27:11;28.80;84.60
22161;DHT22;49035;48.812;11.762;2022-07-22T06:29:36;28.70;84.00
22161;DHT22;49035;48.812;11.762;2022-07-22T06:32:02;28.30;86.40
22161;DHT22;49035;48.812;11.762;2022-07-22T06:34:28;28.10;89.00
22161;DHT22;49035;48.812;11.762;2022-07-22T06:36:55;27.80;89.80
22161;DHT22;49035;48.812;11.762;2022-07-22T06:42:32;27.40;91.70
22161;DHT22;49035;48.812;11.762;2022-07-22T06:45:13;28.50;88.60
22161;DHT22;49035;48.812;11.762;2022-07-22T06:47:39;28.70;87.90
22161;DHT22;49035;48.812;11.762;2022-07-22T06:50:07;28.10;87.60
22161;DHT22;49035;48.812;11.762;2022-07-22T06:52:48;28.40;87.70
22161;DHT22;49035;48.812;11.762;2022-07-22T06:55:14;28.70;87.30
22161;DHT22;49035;48.812;11.762;2022-07-22T06:57:40;28.30;85.70
22161;DHT22;49035;48.812;11.762;2022-07-22T07:00:07;27.80;86.90
22161;DHT22;49035;48.812;11.762;2022-07-22T07:02:33;27.50;90.20
22161;DHT22;49035;48.812;11.762;2022-07-22T07:04:59;27.50;90.70
22161;DHT22;49035;48.812;11.762;2022-07-22T07:07:25;28.50;86.00
22161;DHT22;49035;48.812;11.762;2022-07-22T07:09:50;29.00;83.50
22161;DHT22;49035;48.812;11.762;2022-07-22T07:12:16;29.00;83.60
22161;DHT22;49035;48.812;11.762;2022-07-22T07:14:42;29.00;82.70
22161;DHT22;49035;48.812;11.762;2022-07-22T07:17:07;28.80;85.30
22161;DHT22;49035;48.812;11.762;2022-07-22T07:19:33;29.00;89.30
22161;DHT22;49035;48.812;11.762;2022-07-22T07:21:58;29.40;82.00
22161;DHT22;49035;48.812;11.762;2022-07-22T07:24:24;29.40;81.70
22161;DHT22;49035;48.812;11.762;2022-07-22T07:26:50;29.70;82.00
22161;DHT22;49035;48.812;11.762;2022-07-22T07:29:16;29.60;77.90
22161;DHT22;49035;48.812;11.762;2022-07-22T07:31:44;29.40;83.70
22161;DHT22;49035;48.812;11.762;2022-07-22T07:34:19;29.40;77.40
22161;DHT22;49035;48.812;11.762;2022-07-22T07:40:28;28.60;82.50
22161;DHT22;49035;48.812;11.762;2022-07-22T07:43:32;28.70;82.20
22161;DHT22;49035;48.812;11.762;2022-07-22T07:50:05;29.60;79.10
22161;DHT22;49035;48.812;11.762;2022-07-22T08:02:58;30.70;71.50
22161;DHT22;49035;48.812;11.762;2022-07-22T08:09:20;30.40;70.90
22161;DHT22;49035;48.812;11.762;2022-07-22T08:12:06;31.00;65.70
22161;DHT22;49035;48.812;11.762;2022-07-22T08:18:10;31.50;61.90
22161;DHT22;49035;48.812;11.762;2022-07-22T08:24:17;31.20;60.50
22161;DHT22;49035;48.812;11.762;2022-07-22T08:27:11;31.10;63.00
22161;DHT22;49035;48.812;11.762;2022-07-22T08:29:36;31.50;59.40
22161;DHT22;49035;48.812;11.762;2022-07-22T08:32:02;31.60;59.70
22161;DHT22;49035;48.812;11.762;2022-07-22T08:34:31;31.40;60.70
22161;DHT22;49035;48.812;11.762;2022-07-22T08:37:12;31.30;57.50
22161;DHT22;49035;48.812;11.762;2022-07-22T08:43:12;30.90;59.90
22161;DHT22;49035;48.812;11.762;2022-07-22T08:45:39;31.20;59.60
22161;DHT22;49035;48.812;11.762;2022-07-22T08:48:05;31.30;56.70
22161;DHT22;49035;48.812;11.762;2022-07-22T08:50:37;31.30;55.40
22161;DHT22;49035;48.812;11.762;2022-07-22T08:53:09;31.60;55.80
22161;DHT22;49035;48.812;11.762;2022-07-22T08:55:49;31.20;53.10
22161;DHT22;49035;48.812;11.762;2022-07-22T08:58:21;31.20;56.50
22161;DHT22;49035;48.812;11.762;2022-07-22T09:01:18;31.30;54.40
22161;DHT22;49035;48.812;11.762;2022-07-22T09:07:38;31.00;58.20
22161;DHT22;49035;48.812;11.762;2022-07-22T09:10:29;30.60;59.80
22161;DHT22;49035;48.812;11.762;2022-07-22T09:13:05;30.60;59.40
22161;DHT22;49035;48.812;11.762;2022-07-22T09:17:59;30.00;66.00
22161;DHT22;49035;48.812;11.762;2022-07-22T09:20:28;30.50;62.70
22161;DHT22;49035;48.812;11.762;2022-07-22T09:22:54;30.90;65.10
22161;DHT22;49035;48.812;11.762;2022-07-22T09:25:30;30.80;61.30
22161;DHT22;49035;48.812;11.762;2022-07-22T09:28:10;30.60;62.10
22161;DHT22;49035;48.812;11.762;2022-07-22T09:30:39;30.60;61.40
22161;DHT22;49035;48.812;11.762;2022-07-22T09:33:07;30.80;64.00
22161;DHT22;49035;48.812;11.762;2022-07-22T09:35:33;31.00;61.70
22161;DHT22;49035;48.812;11.762;2022-07-22T09:38:01;31.40;61.50
22161;DHT22;49035;48.812;11.762;2022-07-22T09:40:32;31.40;61.70
22161;DHT22;49035;48.812;11.762;2022-07-22T09:43:00;31.60;61.40
22161;DHT22;49035;48.812;11.762;2022-07-22T09:45:28;31.80;57.60
22161;DHT22;49035;48.812;11.762;2022-07-22T09:47:56;31.70;57.10
22161;DHT22;49035;48.812;11.762;2022-07-22T09:50:30;31.40;57.80
22161;DHT22;49035;48.812;11.762;2022-07-22T09:52:57;31.20;58.40
22161;DHT22;49035;48.812;11.762;2022-07-22T09:55:24;31.20;64.50
22161;DHT22;49035;48.812;11.762;2022-07-22T09:57:51;31.30;60.30
22161;DHT22;49035;48.812;11.762;2022-07-22T10:00:22;31.00;64.40
22161;DHT22;49035;48.812;11.762;2022-07-22T10:02:56;31.00;65.50
22161;DHT22;49035;48.812;11.762;2022-07-22T10:05:27;31.40;66.50
22161;DHT22;49035;48.812;11.762;2022-07-22T10:07:54;31.60;61.40
22161;DHT22;49035;48.812;11.762;2022-07-22T10:10:22;31.60;62.70
22161;DHT22;49035;48.812;11.762;2022-07-22T10:12:50;31.80;61.20
22161;DHT22;49035;48.812;11.762;2022-07-22T10:15:16;32.00;61.70
22161;DHT22;49035;48.812;11.762;2022-07-22T10:17:44;32.30;56.60
22161;DHT22;49035;48.812;11.762;2022-07-22T10:20:11;32.10;61.10
22161;DHT22;49035;48.812;11.762;2022-07-22T10:25:08;31.00;59.40
22161;DHT22;49035;48.812;11.762;2022-07-22T10:28:02;30.30;60.50
22161;DHT22;49035;48.812;11.762;2022-07-22T10:30:38;29.90;62.40
22161;DHT22;49035;48.812;11.762;2022-07-22T10:33:16;30.00;60.80
22161;DHT22;49035;48.812;11.762;2022-07-22T10:38:09;30.20;63.10
22161;DHT22;49035;48.812;11.762;2022-07-22T10:40:56;29.90;59.00
22161;DHT22;49035;48.812;11.762;2022-07-22T10:46:08;30.40;58.30
22161;DHT22;49035;48.812;11.762;2022-07-22T10:51:16;31.30;57.40
22161;DHT22;49035;48.812;11.762;2022-07-22T10:53:47;30.90;59.60
22161;DHT22;49035;48.812;11.762;2022-07-22T10:58:54;30.80;58.90
22161;DHT22;49035;48.812;11.762;2022-07-22T11:01:26;30.50;57.90
22161;DHT22;49035;48.812;11.762;2022-07-22T11:03:53;30.40;58.60
22161;DHT22;49035;48.812;11.762;2022-07-22T11:06:30;30.40;59.30
22161;DHT22;49035;48.812;11.762;2022-07-22T11:09:05;30.70;58.70
22161;DHT22;49035;48.812;11.762;2022-07-22T11:11:52;30.70;57.90
22161;DHT22;49035;48.812;11.762;2022-07-22T11:14:21;30.90;57.70
22161;DHT22;49035;48.812;11.762;2022-07-22T11:16:51;30.70;57.70
22161;DHT22;49035;48.812;11.762;2022-07-22T11:19:36;30.50;61.60
22161;DHT22;49035;48.812;11.762;2022-07-22T11:22:10;30.90;59.80
22161;DHT22;49035;48.812;11.762;2022-07-22T11:24:37;31.30;59.90
22161;DHT22;49035;48.812;11.762;2022-07-22T11:27:03;31.50;58.50
22161;DHT22;49035;48.812;11.762;2022-07-22T11:29:37;31.70;60.80
22161;DHT22;49035;48.812;11.762;2022-07-22T11:32:09;31.90;56.30
22161;DHT22;49035;48.812;11.762;2022-07-22T11:34:37;31.70;56.10
22161;DHT22;49035;48.812;11.762;2022-07-22T11:37:03;31.70;57.10
22161;DHT22;49035;48.812;11.762;2022-07-22T11:39:29;31.50;55.70
22161;DHT22;49035;48.812;11.762;2022-07-22T11:41:58;31.70;58.70
22161;DHT22;49035;48.812;11.762;2022-07-22T11:44:27;31.90;53.00
22161;DHT22;49035;48.812;11.762;2022-07-22T11:46:53;31.80;53.70
22161;DHT22;49035;48.812;11.762;2022-07-22T11:49:23;32.00;53.20
22161;DHT22;49035;48.812;11.762;2022-07-22T11:51:50;32.10;53.70
22161;DHT22;49035;48.812;11.762;2022-07-22T11:54:16;32.20;53.00
22161;DHT22;49035;48.812;11.762;2022-07-22T11:56:42;31.90;53.70
22161;DHT22;49035;48.812;11.762;2022-07-22T11:59:11;31.90;52.50
22161;DHT22;49035;48.812;11.762;2022-07-22T12:01:37;32.20;53.30
22161;DHT22;49035;48.812;11.762;2022-07-22T12:04:08;32.20;52.20
22161;DHT22;49035;48.812;11.762;2022-07-22T12:06:36;32.20;56.70
22161;DHT22;49035;48.812;11.762;2022-07-22T12:09:16;31.90;53.10
22161;DHT22;49035;48.812;11.762;2022-07-22T12:11:47;32.00;51.90
22161;DHT22;49035;48.812;11.762;2022-07-22T12:14:15;32.40;52.20
22161;DHT22;49035;48.812;11.762;2022-07-22T12:16:43;32.40;52.00
22161;DHT22;49035;48.812;11.762;2022-07-22T12:19:11;32.20;56.00
22161;DHT22;49035;48.812;11.762;2022-07-22T12:21:51;32.20;52.50
22161;DHT22;49035;48.812;11.762;2022-07-22T12:24:32;32.10;51.80
22161;DHT22;49035;48.812;11.762;2022-07-22T12:27:00;31.90;54.00
22161;DHT22;49035;48.812;11.762;2022-07-22T12:32:17;31.80;53.40
22161;DHT22;49035;48.812;11.762;2022-07-22T12:34:58;31.90;51.10
22161;DHT22;49035;48.812;11.762;2022-07-22T12:37:26;32.00;52.30
22161;DHT22;49035;48.812;11.762;2022-07-22T12:40:00;32.10;53.50
22161;DHT22;49035;48.812;11.762;2022-07-22T12:42:30;32.60;54.80
22161;DHT22;49035;48.812;11.762;2022-07-22T12:53:01;34.40;52.50
22161;DHT22;49035;48.812;11.762;2022-07-22T12:55:28;33.90;48.90
22161;DHT22;49035;48.812;11.762;2022-07-22T12:57:54;33.30;49.90
22161;DHT22;49035;48.812;11.762;2022-07-22T13:00:34;33.20;49.80
22161;DHT22;49035;48.812;11.762;2022-07-22T13:03:03;33.20;48.20
22161;DHT22;49035;48.812;11.762;2022-07-22T13:05:29;33.20;50.00
22161;DHT22;49035;48.812;11.762;2022-07-22T13:07:54;33.30;48.30
22161;DHT22;49035;48.812;11.762;2022-07-22T13:10:22;33.30;48.20
22161;DHT22;49035;48.812;11.762;2022-07-22T13:12:48;33.30;48.30
22161;DHT22;49035;48.812;11.762;2022-07-22T13:15:14;33.30;50.60
22161;DHT22;49035;48.812;11.762;2022-07-22T13:17:40;33.20;47.50
22161;DHT22;49035;48.812;11.762;2022-07-22T13:20:07;33.20;48.10
22161;DHT22;49035;48.812;11.762;2022-07-22T13:22:34;33.30;50.40
22161;DHT22;49035;48.812;11.762;2022-07-22T13:25:00;33.40;49.60
22161;DHT22;49035;48.812;11.762;2022-07-22T13:27:26;33.50;46.40
22161;DHT22;49035;48.812;11.762;2022-07-22T13:29:51;33.20;47.60
22161;DHT22;49035;48.812;11.762;2022-07-22T13:32:17;32.60;51.30
22161;DHT22;49035;48.812;11.762;2022-07-22T13:34:43;32.20;47.80
22161;DHT22;49035;48.812;11.762;2022-07-22T13:37:09;32.10;51.10
22161;DHT22;49035;48.812;11.762;2022-07-22T13:39:35;32.70;50.20
22161;DHT22;49035;48.812;11.762;2022-07-22T13:42:00;32.90;48.30
22161;DHT22;49035;48.812;11.762;2022-07-22T13:44:26;33.40;49.50
22161;DHT22;49035;48.812;11.762;2022-07-22T13:46:51;33.50;49.30
22161;DHT22;49035;48.812;11.762;2022-07-22T13:49:17;33.10;48.70
22161;DHT22;49035;48.812;11.762;2022-07-22T13:51:43;32.80;47.60
22161;DHT22;49035;48.812;11.762;2022-07-22T13:54:09;32.80;47.60
22161;DHT22;49035;48.812;11.762;2022-07-22T13:56:34;32.60;47.20
22161;DHT22;49035;48.812;11.762;2022-07-22T13:59:00;32.70;48.30
22161;DHT22;49035;48.812;11.762;2022-07-22T14:01:26;32.60;50.40
22161;DHT22;49035;48.812;11.762;2022-07-22T14:03:52;32.70;46.80
22161;DHT22;49035;48.812;11.762;2022-07-22T14:06:18;32.70;48.20
22161;DHT22;49035;48.812;11.762;2022-07-22T14:08:44;32.60;50.80
22161;DHT22;49035;48.812;11.762;2022-07-22T14:11:10;32.80;48.40
22161;DHT22;49035;48.812;11.762;2022-07-22T14:13:35;33.30;47.60
22161;DHT22;49035;48.812;11.762;2022-07-22T14:16:01;33.70;45.20
22161;DHT22;49035;48.812;11.762;2022-07-22T14:18:47;34.10;45.70
22161;DHT22;49035;48.812;11.762;2022-07-22T14:21:13;34.40;45.60
22161;DHT22;49035;48.812;11.762;2022-07-22T14:23:39;34.00;45.10
22161;DHT22;49035;48.812;11.762;2022-07-22T14:26:05;33.90;44.90
22161;DHT22;49035;48.812;11.762;2022-07-22T14:28:31;34.10;44.10
22161;DHT22;49035;48.812;11.762;2022-07-22T14:30:57;34.10;43.50
22161;DHT22;49035;48.812;11.762;2022-07-22T14:33:22;34.30;45.00
22161;DHT22;49035;48.812;11.762;2022-07-22T14:35:48;34.60;44.60
22161;DHT22;49035;48.812;11.762;2022-07-22T14:38:14;35.10;43.10
22161;DHT22;49035;48.812;11.762;2022-07-22T14:40:39;35.00;43.00
22161;DHT22;49035;48.812;11.762;2022-07-22T14:43:05;34.70;42.90
22161;DHT22;49035;48.812;11.762;2022-07-22T14:45:30;34.40;43.60
22161;DHT22;49035;48.812;11.762;2022-07-22T14:47:56;34.60;43.00
22161;DHT22;49035;48.812;11.762;2022-07-22T14:50:21;34.90;41.50
22161;DHT22;49035;48.812;11.762;2022-07-22T14:52:47;35.30;45.60
22161;DHT22;49035;48.812;11.762;2022-07-22T14:55:13;35.30;41.60
22161;DHT22;49035;48.812;11.762;2022-07-22T14:57:38;34.90;41.90
22161;DHT22;49035;48.812;11.762;2022-07-22T15:00:05;34.40;45.50
22161;DHT22;49035;48.812;11.762;2022-07-22T15:02:31;34.30;43.70
22161;DHT22;49035;48.812;11.762;2022-07-22T15:04:56;34.10;44.70
22161;DHT22;49035;48.812;11.762;2022-07-22T15:07:22;33.60;43.20
22161;DHT22;49035;48.812;11.762;2022-07-22T15:09:48;33.60;45.60
22161;DHT22;49035;48.812;11.762;2022-07-22T15:12:13;33.70;44.70
22161;DHT22;49035;48.812;11.762;2022-07-22T15:14:39;33.70;46.00
22161;DHT22;49035;48.812;11.762;2022-07-22T15:17:04;33.60;44.00
22161;DHT22;49035;48.812;11.762;2022-07-22T15:19:30;33.70;44.40
22161;DHT22;49035;48.812;11.762;2022-07-22T15:21:56;33.90;42.10
22161;DHT22;49035;48.812;11.762;2022-07-22T15:24:21;34.40;45.50
22161;DHT22;49035;48.812;11.762;2022-07-22T15:26:47;34.80;42.10
22161;DHT22;49035;48.812;11.762;2022-07-22T15:29:13;35.30;42.80
22161;DHT22;49035;48.812;11.762;2022-07-22T15:31:38;35.70;41.00
22161;DHT22;49035;48.812;11.762;2022-07-22T15:34:04;35.70;41.20
22161;DHT22;49035;48.812;11.762;2022-07-22T15:36:29;36.50;40.70
22161;DHT22;49035;48.812;11.762;2022-07-22T15:38:55;37.20;38.10
22161;DHT22;49035;48.812;11.762;2022-07-22T15:41:21;36.60;38.20
22161;DHT22;49035;48.812;11.762;2022-07-22T15:43:47;37.10;39.10
22161;DHT22;49035;48.812;11.762;2022-07-22T15:46:13;37.20;37.90
22161;DHT22;49035;48.812;11.762;2022-07-22T15:48:38;37.70;38.00
22161;DHT22;49035;48.812;11.762;2022-07-22T15:51:08;38.90;38.90
22161;DHT22;49035;48.812;11.762;2022-07-22T15:53:35;40.10;39.30
22161;DHT22;49035;48.812;11.762;2022-07-22T15:56:00;41.30;35.00
22161;DHT22;49035;48.812;11.762;2022-07-22T15:58:26;41.80;34.50
22161;DHT22;49035;48.812;11.762;2022-07-22T16:01:11;41.10;33.10
22161;DHT22;49035;48.812;11.762;2022-07-22T16:03:36;42.30;32.20
22161;DHT22;49035;48.812;11.762;2022-07-22T16:07:39;42.70;31.90
22161;DHT22;49035;48.812;11.762;2022-07-22T16:10:05;42.70;30.40
22161;DHT22;49035;48.812;11.762;2022-07-22T16:12:31;42.50;31.90
22161;DHT22;49035;48.812;11.762;2022-07-22T16:14:56;42.00;29.90
22161;DHT22;49035;48.812;11.762;2022-07-22T16:17:22;41.50;31.10
22161;DHT22;49035;48.812;11.762;2022-07-22T16:19:48;42.10;31.40
22161;DHT22;49035;48.812;11.762;2022-07-22T16:22:14;41.90;30.20
22161;DHT22;49035;48.812;11.762;2022-07-22T16:24:40;41.10;30.80
22161;DHT22;49035;48.812;11.762;2022-07-22T16:27:06;41.30;34.30
22161;DHT22;49035;48.812;11.762;2022-07-22T16:29:32;42.00;32.10
22161;DHT22;49035;48.812;11.762;2022-07-22T16:31:58;41.60;30.20
22161;DHT22;49035;48.812;11.762;2022-07-22T16:34:23;40.10;32.10
22161;DHT22;49035;48.812;11.762;2022-07-22T16:36:50;40.60;33.00